Time;durP1;ratioP1;P1;durP2;ratioP2;P2;SDS_P1;SDS_P2;PMS_P1;PMS_P2;Temp;Humidity;BMP_temperature;BMP_pressure;BME280_temperature;BME280_humidity;BME280_pressure;Samples;Min_cycle;Max_cycle;Signal;HPM_P1;HPM_P2
2023/10/21 00:04:40;;;;;;;;;;;;;;;;;;10399577;28;19938;-76
2023/10/21 00:09:40;;;;;;;;;;;;;;;;;;10417569;28;19920;-77
2023/10/21 00:14:41;;;;;;;;;;;;;;;;;;10416338;28;19927;-82
2023/10/21 00:19:41;;;;;;;;;;;;;;;;;;10413048;28;19928;-79
2023/10/21 00:24:41;;;;;;;;;;;;;;;;;;10412607;28;19928;-82
2023/10/21 00:29:41;;;;;;;;;;;;;;;;;;10420121;28;20001;-79
2023/10/21 00:34:42;;;;;;;;;;;;;;;;;;10418596;28;19928;-79
2023/10/21 00:39:46;;;;;;;;;;;;;;;;;;10405375;28;19968;-78
2023/10/21 00:44:46;;;;;;;;;;;;;;;;;;10421276;28;19935;-78
2023/10/21 00:49:46;;;;;;;;;;;;;;;;;;10403287;28;19928;-76
2023/10/21 00:54:46;;;;;;;;;;;;;;;;;;10416880;28;20016;-75
2023/10/21 00:59:47;;;;;;;;;;;;;;;;;;10414687;28;19928;-78
2023/10/21 01:04:47;;;;;;;;;;;;;;;;;;10413465;28;20465;-79
2023/10/21 01:09:47;;;;;;;;;;;;;;;;;;10396209;28;19928;-78
2023/10/21 01:14:47;;;;;;;;;;;;;;;;;;10419698;28;19925;-77
2023/10/21 01:19:48;;;;;;;;;;;;;;;;;;10396283;28;19928;-80
2023/10/21 01:24:49;;;;;;;;;;;;;;;;;;10399119;28;19936;-81
2023/10/21 01:29:49;;;;;;;;;;;;;;;;;;10400681;28;19921;-80
2023/10/21 01:34:49;;;;;;;;;;;;;;;;;;10422631;28;19920;-78
2023/10/21 01:39:49;;;;;;;;;;;;;;;;;;10427567;28;19916;-74
2023/10/21 01:44:54;;;;;;;;;;;;;;;;;;10410369;28;19929;-77
2023/10/21 01:49:54;;;;;;;;;;;;;;;;;;10422049;28;19921;-77
2023/10/21 01:54:54;;;;;;;;;;;;;;;;;;10421437;28;19921;-76
2023/10/21 01:59:54;;;;;;;;;;;;;;;;;;10418620;28;19921;-75
2023/10/21 02:04:55;;;;;;;;;;;;;;;;;;10401244;28;19928;-80
2023/10/21 02:09:55;;;;;;;;;;;;;;;;;;10422065;28;19967;-78
2023/10/21 02:14:55;;;;;;;;;;;;;;;;;;10420269;28;19921;-76
2023/10/21 02:19:58;;;;;;;;;;;;;;;;;;10405744;28;19928;-74
2023/10/21 02:24:59;;;;;;;;;;;;;;;;;;10423936;28;19933;-79
2023/10/21 02:29:59;;;;;;;;;;;;;;;;;;10408561;28;19921;-77
2023/10/21 02:35:00;;;;;;;;;;;;;;;;;;10406826;28;19920;-77
2023/10/21 02:40:00;;;;;;;;;;;;;;;;;;10424278;28;19928;-77
2023/10/21 02:45:00;;;;;;;;;;;;;;;;;;10422003;28;19929;-78
2023/10/21 02:50:00;;;;;;;;;;;;;;;;;;10421816;28;19921;-75
2023/10/21 02:55:01;;;;;;;;;;;;;;;;;;10421209;28;19921;-76
2023/10/21 03:00:01;;;;;;;;;;;;;;;;;;10400621;28;19928;-74
2023/10/21 03:05:02;;;;;;;;;;;;;;;;;;10412990;28;19944;-81
2023/10/21 03:10:06;;;;;;;;;;;;;;;;;;10413849;28;20020;-75
2023/10/21 03:15:07;;;;;;;;;;;;;;;;;;10406747;28;19925;-80
2023/10/21 03:20:07;;;;;;;;;;;;;;;;;;10406205;28;19921;-76
2023/10/21 03:25:07;;;;;;;;;;;;;;;;;;10418123;28;20277;-76
2023/10/21 03:30:08;;;;;;;;;;;;;;;;;;10424861;28;20558;-78
2023/10/21 03:35:08;;;;;;;;;;;;;;;;;;10423166;28;19970;-76
2023/10/21 03:40:10;;;;;;;;;;;;;;;;;;10421604;28;19994;-78
2023/10/21 03:45:10;;;;;;;;;;;;;;;;;;10420794;28;20221;-79
2023/10/21 03:50:10;;;;;;;;;;;;;;;;;;10433940;28;19925;-77
2023/10/21 03:55:11;;;;;;;;;;;;;;;;;;10430944;28;19932;-79
2023/10/21 04:00:12;;;;;;;;;;;;;;;;;;10427055;28;19985;-76
2023/10/21 04:05:12;;;;;;;;;;;;;;;;;;10431183;28;20396;-82
2023/10/21 04:10:13;;;;;;;;;;;;;;;;;;10426159;28;19927;-79
2023/10/21 04:15:13;;;;;;;;;;;;;;;;;;10425217;28;20023;-81
2023/10/21 04:20:13;;;;;;;;;;;;;;;;;;10424692;28;19921;-81
2023/10/21 04:25:13;;;;;;;;;;;;;;;;;;10426697;28;19932;-76
2023/10/21 04:30:14;;;;;;;;;;;;;;;;;;10429231;28;20371;-80
2023/10/21 04:35:14;;;;;;;;;;;;;;;;;;10431916;28;20403;-75
2023/10/21 04:40:15;;;;;;;;;;;;;;;;;;10425436;28;19921;-74
2023/10/21 04:45:15;;;;;;;;;;;;;;;;;;10421378;28;20073;-74
2023/10/21 04:50:16;;;;;;;;;;;;;;;;;;10421388;28;19920;-75
2023/10/21 04:55:16;;;;;;;;;;;;;;;;;;10420516;28;19921;-74
2023/10/21 05:00:17;;;;;;;;;;;;;;;;;;10416907;28;20099;-78
2023/10/21 05:05:17;;;;;;;;;;;;;;;;;;10421015;28;19935;-79
2023/10/21 05:10:18;;;;;;;;;;;;;;;;;;10426456;28;20240;-76
2023/10/21 05:15:18;;;;;;;;;;;;;;;;;;10426615;28;20342;-76
2023/10/21 05:20:19;;;;;;;;;;;;;;;;;;10427469;28;19921;-77
2023/10/21 05:25:19;;;;;;;;;;;;;;;;;;10414629;28;20027;-77
2023/10/21 05:30:19;;;;;;;;;;;;;;;;;;10431199;28;20004;-76
2023/10/21 05:35:19;;;;;;;;;;;;;;;;;;10431251;28;20747;-78
2023/10/21 05:40:21;;;;;;;;;;;;;;;;;;10433180;28;20012;-77
2023/10/21 05:45:22;;;;;;;;;;;;;;;;;;10436686;28;19928;-79
2023/10/21 05:50:24;;;;;;;;;;;;;;;;;;10431490;28;19932;-81
2023/10/21 05:55:25;;;;;;;;;;;;;;;;;;10424375;28;19921;-79
2023/10/21 06:00:25;;;;;;;;;;;;;;;;;;10418176;28;19932;-77
2023/10/21 06:05:25;;;;;;;;;;;;;;;;;;10418498;28;19935;-78
2023/10/21 06:10:26;;;;;;;;;;;;;;;;;;10402755;28;19921;-77
2023/10/21 06:15:26;;;;;;;;;;;;;;;;;;10413173;28;19948;-77
2023/10/21 06:20:26;;;;;;;;;;;;;;;;;;10407526;28;20366;-75
2023/10/21 06:25:26;;;;;;;;;;;;;;;;;;10425841;28;20387;-75
2023/10/21 06:30:27;;;;;;;;;;;;;;;;;;10414054;28;20013;-81
2023/10/21 06:35:27;;;;;;;;;;;;;;;;;;10432236;28;19921;-78
2023/10/21 06:40:27;;;;;;;;;;;;;;;;;;10428970;28;20341;-75
2023/10/21 06:45:28;;;;;;;;;;;;;;;;;;10421371;28;20297;-75
2023/10/21 06:50:28;;;;;;;;;;;;;;;;;;10422089;28;19921;-73
2023/10/21 06:55:29;;;;;;;;;;;;;;;;;;10421435;28;19917;-73
2023/10/21 07:00:29;;;;;;;;;;;;;;;;;;10423347;28;19927;-74
2023/10/21 07:05:29;;;;;;;;;;;;;;;;;;10421634;28;19929;-72
2023/10/21 07:10:30;;;;;;;;;;;;;;;;;;10422759;28;19927;-73
2023/10/21 07:15:31;;;;;;;;;;;;;;;;;;10420720;28;19917;-75
2023/10/21 07:20:31;;;;;;;;;;;;;;;;;;10420579;28;19943;-77
2023/10/21 07:25:31;;;;;;;;;;;;;;;;;;10425564;28;20557;-75
2023/10/21 07:30:31;;;;;;;;;;;;;;;;;;10421506;28;20039;-74
2023/10/21 07:35:32;;;;;;;;;;;;;;;;;;10422336;28;19978;-79
2023/10/21 07:40:32;;;;;;;;;;;;;;;;;;10416778;28;19929;-76
2023/10/21 07:45:32;;;;;;;;;;;;;;;;;;10418379;28;19932;-78
2023/10/21 07:50:32;;;;;;;;;;;;;;;;;;10417449;28;19921;-78
2023/10/21 07:55:32;;;;;;;;;;;;;;;;;;10414538;28;19935;-75
2023/10/21 08:00:33;;;;;;;;;;;;;;;;;;10402766;28;19921;-80
2023/10/21 08:05:35;;;;;;;;;;;;;;;;;;10413337;28;20034;-77
2023/10/21 08:10:35;;;;;;;;;;;;;;;;;;10414722;28;19952;-79
2023/10/21 08:15:36;;;;;;;;;;;;;;;;;;10408039;28;19921;-77
2023/10/21 08:20:37;;;;;;;;;;;;;;;;;;10411166;28;19920;-79
2023/10/21 08:25:37;;;;;;;;;;;;;;;;;;10422964;28;20286;-79
2023/10/21 08:30:37;;;;;;;;;;;;;;;;;;10426209;28;19925;-83
2023/10/21 08:35:37;;;;;;;;;;;;;;;;;;10434028;28;19920;-82
2023/10/21 08:40:38;;;;;;;;;;;;;;;;;;10414359;28;20362;-84
2023/10/21 08:45:39;;;;;;;;;;;;;;;;;;10431680;28;20377;-84
2023/10/21 08:50:39;;;;;;;;;;;;;;;;;;10431393;28;19920;-86
2023/10/21 08:55:39;;;;;;;;;;;;;;;;;;10425312;28;19925;-82
2023/10/21 09:00:41;;;;;;;;;;;;;;;;;;10426791;28;20009;-76
2023/10/21 09:05:41;;;;;;;;;;;;;;;;;;10428660;28;19939;-78
2023/10/21 09:10:42;;;;;;;;;;;;;;;;;;10430515;28;20387;-77
2023/10/21 09:15:42;;;;;;;;;;;;;;;;;;10414874;28;19923;-78
2023/10/21 09:20:42;;;;;;;;;;;;;;;;;;10429168;28;20033;-82
2023/10/21 09:25:43;;;;;;;;;;;;;;;;;;10429528;28;20038;-83
2023/10/21 09:30:43;;;;;;;;;;;;;;;;;;10434468;28;19981;-82
2023/10/21 09:35:43;;;;;;;;;;;;;;;;;;10433813;28;20369;-79
2023/10/21 09:40:43;;;;;;;;;;;;;;;;;;10429109;28;19932;-83
2023/10/21 09:45:44;;;;;;;;;;;;;;;;;;10427577;28;19929;-84
2023/10/21 09:50:45;;;;;;;;;;;;;;;;;;10413141;28;20000;-82
2023/10/21 09:55:45;;;;;;;;;;;;;;;;;;10430138;28;19921;-84
2023/10/21 10:00:46;;;;;;;;;;;;;;;;;;10424608;28;19920;-88
2023/10/21 10:05:48;;;;;;;;;;;;;;;;;;10409245;28;19979;-80
2023/10/21 10:10:48;;;;;;;;;;;;;;;;;;10424838;28;20424;-83
2023/10/21 10:15:49;;;;;;;;;;;;;;;;;;10429459;28;19920;-85
2023/10/21 10:20:49;;;;;;;;;;;;;;;;;;10428972;28;19921;-83
2023/10/21 10:25:53;;;;;;;;;;;;;;;;;;10429237;28;19932;-85
2023/10/21 10:30:54;;;;;;;;;;;;;;;;;;10427491;28;19928;-82
2023/10/21 10:35:54;;;;;;;;;;;;;;;;;;10424733;28;20123;-86
2023/10/21 10:40:55;;;;;;;;;;;;;;;;;;10408251;28;19951;-81
2023/10/21 10:45:56;;;;;;;;;;;;;;;;;;10427757;28;19982;-80
2023/10/21 10:50:56;;;;;;;;;;;;;;;;;;10422193;28;19918;-81
2023/10/21 10:55:56;;;;;;;;;;;;;;;;;;10423614;28;19921;-80
2023/10/21 11:00:57;;;;;;;;;;;;;;;;;;10429265;28;19960;-83
2023/10/21 11:05:57;;;;;;;;;;;;;;;;;;10419136;28;20055;-81
2023/10/21 11:10:57;;;;;;;;;;;;;;;;;;10406805;28;19925;-79
2023/10/21 11:15:58;;;;;;;;;;;;;;;;;;10422375;28;19921;-79
2023/10/21 11:20:58;;;;;;;;;;;;;;;;;;10436236;28;19929;-83
2023/10/21 11:25:58;;;;;;;;;;;;;;;;;;10440926;28;20404;-78
2023/10/21 11:30:59;;;;;;;;;;;;;;;;;;10438417;28;19928;-79
2023/10/21 11:36:00;;;;;;;;;;;;;;;;;;10425124;28;19928;-80
2023/10/21 11:41:01;;;;;;;;;;;;;;;;;;10434578;28;19928;-79
2023/10/21 11:46:03;;;;;;;;;;;;;;;;;;10410785;28;19924;-80
2023/10/21 11:51:03;;;;;;;;;;;;;;;;;;10424161;28;20036;-78
2023/10/21 11:56:54;;;;;;;;;;;;;;;;;;10422299;28;19921;-79
2023/10/21 12:26:57;;;;;;;;;;;;;;;;;;10425296;28;19921;-80
2023/10/21 12:47:27;;;;;;;;;;;;;;;;;;10430762;28;19928;-82
2023/10/21 12:52:29;;;;;;;;;;;;;;;;;;10441176;28;20632;-79
2023/10/21 12:57:29;;;;;;;;;;;;;;;;;;10442493;28;19920;-77
2023/10/21 13:02:29;;;;;;;;;;;;;;;;;;10437682;28;19991;-77
2023/10/21 13:07:31;;;;;;;;;;;;;;;;;;10436875;28;20357;-77
2023/10/21 13:12:31;;;;;;;;;;;;;;;;;;10443751;28;19917;-79
2023/10/21 13:17:31;;;;;;;;;;;;;;;;;;10437868;28;20327;-79
2023/10/21 13:22:34;;;;;;;;;;;;;;;;;;10431987;28;19928;-77
2023/10/21 13:27:36;;;;;;;;;;;;;;;;;;10433686;28;20288;-76
2023/10/21 13:32:37;;;;;;;;;;;;;;;;;;10436647;28;20324;-77
2023/10/21 13:37:38;;;;;;;;;;;;;;;;;;10437270;28;19921;-78
2023/10/21 13:42:38;;;;;;;;;;;;;;;;;;10434063;28;19977;-80
2023/10/21 13:47:38;;;;;;;;;;;;;;;;;;10447377;28;20020;-80
2023/10/21 13:52:38;;;;;;;;;;;;;;;;;;10440327;28;19936;-79
2023/10/21 13:57:39;;;;;;;;;;;;;;;;;;10431485;28;19933;-79
2023/10/21 14:02:39;;;;;;;;;;;;;;;;;;10452652;28;19933;-77
2023/10/21 14:07:40;;;;;;;;;;;;;;;;;;10481521;28;19924;-76
2023/10/21 14:12:41;;;;;;;;;;;;;;;;;;10488408;28;20356;-78
2023/10/21 14:17:43;;;;;;;;;;;;;;;;;;10480997;28;19927;-79
2023/10/21 14:22:44;;;;;;;;;;;;;;;;;;10484541;28;19981;-79
2023/10/21 14:27:44;;;;;;;;;;;;;;;;;;10410112;28;20402;-79
2023/10/21 14:32:46;;;;;;;;;;;;;;;;;;10406034;28;19928;-85
2023/10/21 14:37:47;;;;;;;;;;;;;;;;;;10381511;28;19952;-85
2023/10/21 14:42:47;;;;;;;;;;;;;;;;;;10399894;28;19928;-79
2023/10/21 14:47:47;;;;;;;;;;;;;;;;;;10401558;28;19929;-79
2023/10/21 14:52:49;;;;;;;;;;;;;;;;;;10408058;28;19925;-79
2023/10/21 14:57:49;;;;;;;;;;;;;;;;;;10398034;28;20254;-80
2023/10/21 15:02:49;;;;;;;;;;;;;;;;;;10396878;28;19926;-80
2023/10/21 15:07:53;;;;;;;;;;;;;;;;;;10397905;28;20218;-85
2023/10/21 15:12:53;;;;;;;;;;;;;;;;;;10404435;28;19924;-77
2023/10/21 15:17:54;;;;;;;;;;;;;;;;;;10387072;28;20574;-79
2023/10/21 15:22:55;;;;;;;;;;;;;;;;;;10414640;28;19924;-76
2023/10/21 15:27:55;;;;;;;;;;;;;;;;;;10395739;28;20412;-84
2023/10/21 15:32:56;;;;;;;;;;;;;;;;;;10395186;28;20378;-85
2023/10/21 15:37:57;;;;;;;;;;;;;;;;;;10402027;28;19917;-80
2023/10/21 15:42:58;;;;;;;;;;;;;;;;;;10415238;28;19961;-79
2023/10/21 15:47:59;;;;;;;;;;;;;;;;;;10402828;28;20016;-77
2023/10/21 15:52:59;;;;;;;;;;;;;;;;;;10402034;28;19963;-80
2023/10/21 15:58:00;;;;;;;;;;;;;;;;;;10376116;28;19925;-77
2023/10/21 16:03:00;;;;;;;;;;;;;;;;;;10390570;28;19930;-76
2023/10/21 16:08:03;;;;;;;;;;;;;;;;;;10390077;28;19932;-78
2023/10/21 16:13:03;;;;;;;;;;;;;;;;;;10383663;28;20063;-82
2023/10/21 16:18:03;;;;;;;;;;;;;;;;;;10391066;28;20429;-77
2023/10/21 16:23:04;;;;;;;;;;;;;;;;;;10399217;28;19937;-77
2023/10/21 16:28:07;;;;;;;;;;;;;;;;;;10395549;28;20294;-84
2023/10/21 16:33:09;;;;;;;;;;;;;;;;;;10397561;28;19921;-79
2023/10/21 16:38:09;;;;;;;;;;;;;;;;;;10388542;28;19925;-78
2023/10/21 16:43:11;;;;;;;;;;;;;;;;;;10386116;28;20007;-77
2023/10/21 16:48:11;;;;;;;;;;;;;;;;;;10387843;28;20773;-80
2023/10/21 16:53:11;;;;;;;;;;;;;;;;;;10384908;28;20014;-81
2023/10/21 16:58:12;;;;;;;;;;;;;;;;;;10386630;28;20075;-80
2023/10/21 17:03:12;;;;;;;;;;;;;;;;;;10377296;28;19994;-79
2023/10/21 17:08:13;;;;;;;;;;;;;;;;;;10388494;28;20404;-82
2023/10/21 17:13:13;;;;;;;;;;;;;;;;;;10394258;28;19925;-77
2023/10/21 17:18:13;;;;;;;;;;;;;;;;;;10381196;28;20368;-84
2023/10/21 17:23:13;;;;;;;;;;;;;;;;;;10401637;28;19925;-78
2023/10/21 17:28:14;;;;;;;;;;;;;;;;;;10397040;28;19921;-80
2023/10/21 17:33:14;;;;;;;;;;;;;;;;;;10398212;28;19921;-81
2023/10/21 17:38:14;;;;;;;;;;;;;;;;;;10399061;28;19953;-80
2023/10/21 17:43:16;;;;;;;;;;;;;;;;;;10401945;28;19940;-74
2023/10/21 17:48:16;;;;;;;;;;;;;;;;;;10380773;28;19975;-80
2023/10/21 17:53:17;;;;;;;;;;;;;;;;;;10379811;28;19944;-81
2023/10/21 17:58:18;;;;;;;;;;;;;;;;;;10395136;28;19921;-79
2023/10/21 18:03:18;;;;;;;;;;;;;;;;;;10394454;28;19937;-75
2023/10/21 18:08:20;;;;;;;;;;;;;;;;;;10388190;28;20206;-76
2023/10/21 18:13:20;;;;;;;;;;;;;;;;;;10389732;28;19921;-75
2023/10/21 18:18:21;;;;;;;;;;;;;;;;;;10395455;28;20432;-80
2023/10/21 18:23:21;;;;;;;;;;;;;;;;;;10393697;28;19925;-80
2023/10/21 18:28:22;;;;;;;;;;;;;;;;;;10399745;28;20373;-80
2023/10/21 18:33:22;;;;;;;;;;;;;;;;;;10397278;28;19927;-73
2023/10/21 18:38:23;;;;;;;;;;;;;;;;;;10391598;28;19979;-75
2023/10/21 18:43:23;;;;;;;;;;;;;;;;;;10388631;28;20027;-74
2023/10/21 18:48:24;;;;;;;;;;;;;;;;;;10380944;28;19927;-75
2023/10/21 18:53:24;;;;;;;;;;;;;;;;;;10376781;28;19949;-74
2023/10/21 18:58:24;;;;;;;;;;;;;;;;;;10375535;28;19921;-75
2023/10/21 19:03:24;;;;;;;;;;;;;;;;;;10375819;28;19929;-76
2023/10/21 19:08:25;;;;;;;;;;;;;;;;;;10385461;28;19921;-74
2023/10/21 19:13:27;;;;;;;;;;;;;;;;;;10379994;28;19922;-74
2023/10/21 19:18:27;;;;;;;;;;;;;;;;;;10381279;28;19995;-73
2023/10/21 19:23:27;;;;;;;;;;;;;;;;;;10383584;28;20023;-76
2023/10/21 19:28:28;;;;;;;;;;;;;;;;;;10388769;28;19921;-75
2023/10/21 19:33:28;;;;;;;;;;;;;;;;;;10389273;28;19921;-76
2023/10/21 19:38:28;;;;;;;;;;;;;;;;;;10389544;28;19925;-76
2023/10/21 19:43:28;;;;;;;;;;;;;;;;;;10384274;28;19936;-75
2023/10/21 19:48:29;;;;;;;;;;;;;;;;;;10384220;28;19921;-75
2023/10/21 19:53:29;;;;;;;;;;;;;;;;;;10389122;28;20378;-76
2023/10/21 19:58:29;;;;;;;;;;;;;;;;;;10390086;28;19921;-74
2023/10/21 20:03:29;;;;;;;;;;;;;;;;;;10391164;28;19936;-74
2023/10/21 20:08:29;;;;;;;;;;;;;;;;;;10390581;28;19932;-75
2023/10/21 20:13:32;;;;;;;;;;;;;;;;;;10386967;28;20384;-76
2023/10/21 20:18:32;;;;;;;;;;;;;;;;;;10387620;28;19947;-75
2023/10/21 20:23:33;;;;;;;;;;;;;;;;;;10386367;28;20605;-76
2023/10/21 20:28:33;;;;;;;;;;;;;;;;;;10386407;28;19925;-77
2023/10/21 20:33:33;;;;;;;;;;;;;;;;;;10388589;28;20387;-76
2023/10/21 20:38:35;;;;;;;;;;;;;;;;;;10382585;28;19932;-76
2023/10/21 20:43:36;;;;;;;;;;;;;;;;;;10387716;28;20064;-76
2023/10/21 20:48:38;;;;;;;;;;;;;;;;;;10383166;28;19929;-76
2023/10/21 20:53:38;;;;;;;;;;;;;;;;;;10380272;28;19928;-76
2023/10/21 20:58:39;;;;;;;;;;;;;;;;;;10380271;28;19925;-75
2023/10/21 21:03:42;;;;;;;;;;;;;;;;;;10372563;28;19992;-76
2023/10/21 21:08:43;;;;;;;;;;;;;;;;;;10374988;28;20015;-75
2023/10/21 21:13:43;;;;;;;;;;;;;;;;;;10364796;28;19931;-76
2023/10/21 21:18:44;;;;;;;;;;;;;;;;;;10385209;28;19921;-74
2023/10/21 21:23:44;;;;;;;;;;;;;;;;;;10388202;28;19929;-76
2023/10/21 21:28:45;;;;;;;;;;;;;;;;;;10384964;28;20660;-75
2023/10/21 21:33:45;;;;;;;;;;;;;;;;;;10366454;28;19935;-80
2023/10/21 21:38:45;;;;;;;;;;;;;;;;;;10381523;28;19966;-79
2023/10/21 21:43:45;;;;;;;;;;;;;;;;;;10379602;28;19937;-78
2023/10/21 21:48:46;;;;;;;;;;;;;;;;;;10377776;28;20025;-79
2023/10/21 21:53:46;;;;;;;;;;;;;;;;;;10379904;28;19991;-76
2023/10/21 21:58:47;;;;;;;;;;;;;;;;;;10381991;28;19921;-79
2023/10/21 22:03:48;;;;;;;;;;;;;;;;;;10382221;28;20736;-77
2023/10/21 22:08:48;;;;;;;;;;;;;;;;;;10388004;28;19932;-76
2023/10/21 22:13:48;;;;;;;;;;;;;;;;;;10375391;28;19921;-76
2023/10/21 22:18:49;;;;;;;;;;;;;;;;;;10392553;28;19921;-75
2023/10/21 22:23:49;;;;;;;;;;;;;;;;;;10386504;28;20301;-77
2023/10/21 22:28:50;;;;;;;;;;;;;;;;;;10393481;28;19921;-75
2023/10/21 22:33:50;;;;;;;;;;;;;;;;;;10391383;28;20565;-76
2023/10/21 22:38:50;;;;;;;;;;;;;;;;;;10390223;28;19925;-78
2023/10/21 22:43:51;;;;;;;;;;;;;;;;;;10396617;28;20009;-77
2023/10/21 22:48:51;;;;;;;;;;;;;;;;;;10390570;28;19921;-76
2023/10/21 22:53:51;;;;;;;;;;;;;;;;;;10393295;28;20017;-75
2023/10/21 22:58:51;;;;;;;;;;;;;;;;;;10390429;28;19921;-76
2023/10/21 23:03:52;;;;;;;;;;;;;;;;;;10388518;28;19936;-74
2023/10/21 23:08:53;;;;;;;;;;;;;;;;;;10391356;28;19925;-76
2023/10/21 23:13:53;;;;;;;;;;;;;;;;;;10387298;28;19928;-76
2023/10/21 23:18:53;;;;;;;;;;;;;;;;;;10387589;28;20297;-76
2023/10/21 23:23:54;;;;;;;;;;;;;;;;;;10388798;28;19929;-75
2023/10/21 23:28:54;;;;;;;;;;;;;;;;;;10392010;28;19921;-75
2023/10/21 23:33:54;;;;;;;;;;;;;;;;;;10389105;28;20352;-75
2023/10/21 23:38:54;;;;;;;;;;;;;;;;;;10385081;28;19961;-78
2023/10/21 23:43:55;;;;;;;;;;;;;;;;;;10385234;28;19925;-76
2023/10/21 23:48:57;;;;;;;;;;;;;;;;;;10368892;28;19926;-76
2023/10/21 23:53:58;;;;;;;;;;;;;;;;;;10376464;28;19921;-77
2023/10/21 23:59:00;;;;;;;;;;;;;;;;;;10376762;28;19921;-76
